Terminal Aerodrome Forecast
Issued by NWS

Home | Current Version | Previous Version | Text Only | Print | Product List | Glossary On
Versions: 1 2 3 4 5 6 7 8 9 10 11 12 13 14 15 16 17 18 19 20 21 22 23 24
000
FTUS46 KPDT 190539
TAFALW
TAF
KALW 190539Z 1906/2006 14020G28KT P6SM -RA BKN035 OVC060
     FM190800 15012G20KT P6SM SCT035 OVC060
     FM191000 18008KT P6SM OVC060=

USA.gov is the U.S. government's official web portal to all federal, state and local government web resources and services.